<?xml version="1.0" encoding="UTF-8" standalone="no" ?>
<gpx xmlns="http://www.topografix.com/GPX/1/1" xmlns:xsi="http://www.w3.org/2001/XMLSchema-instance" xsi:schemaLocation="http://www.topografix.com/GPX/1/1 http://www.topografix.com/GPX/1/1/gpx.xsd" version="1.1" creator="VisuGPX - https://www.visugpx.com">
  <metadata>
    <name>GR65 d\'Espalion à Estaing</name>
    <desc><![CDATA[Sur le chemin de Saint Jacques de Compostelle entre Espalion et Estaing]]></desc>
  </metadata>
  <trk>
    <name><![CDATA[ACTIVE LOG100428]]></name>
    <trkseg>
      <trkpt lat="44.52113" lon="2.76152">
        <ele>339.825</ele>
        <time>2013-06-20T08:04:26Z</time>
      </trkpt>
      <trkpt lat="44.52113" lon="2.76152">
        <ele>339.825</ele>
        <time>2013-06-20T08:04:27Z</time>
      </trkpt>
      <trkpt lat="44.52113" lon="2.76151">
        <ele>340.028</ele>
        <time>2013-06-20T08:04:28Z</time>
      </trkpt>
      <trkpt lat="44.52113" lon="2.7615">
        <ele>343.374</ele>
        <time>2013-06-20T08:04:40Z</time>
      </trkpt>
      <trkpt lat="44.52115" lon="2.76148">
        <ele>346.586</ele>
        <time>2013-06-20T08:05:05Z</time>
      </trkpt>
      <trkpt lat="44.52112" lon="2.76154">
        <ele>347.118</ele>
        <time>2013-06-20T08:05:26Z</time>
      </trkpt>
      <trkpt lat="44.52114" lon="2.76165">
        <ele>346.681</ele>
        <time>2013-06-20T08:05:58Z</time>
      </trkpt>
      <trkpt lat="44.52127" lon="2.76175">
        <ele>346.488</ele>
        <time>2013-06-20T08:06:16Z</time>
      </trkpt>
      <trkpt lat="44.52132" lon="2.76182">
        <ele>345.841</ele>
        <time>2013-06-20T08:06:23Z</time>
      </trkpt>
      <trkpt lat="44.52153" lon="2.76197">
        <ele>346.07</ele>
        <time>2013-06-20T08:06:45Z</time>
      </trkpt>
      <trkpt lat="44.52176" lon="2.76214">
        <ele>346.375</ele>
        <time>2013-06-20T08:07:09Z</time>
      </trkpt>
      <trkpt lat="44.52194" lon="2.76231">
        <ele>345.857</ele>
        <time>2013-06-20T08:07:30Z</time>
      </trkpt>
      <trkpt lat="44.5221" lon="2.76249">
        <ele>345.976</ele>
        <time>2013-06-20T08:07:51Z</time>
      </trkpt>
      <trkpt lat="44.5222" lon="2.76255">
        <ele>346.61</ele>
        <time>2013-06-20T08:08:06Z</time>
      </trkpt>
      <trkpt lat="44.52233" lon="2.76265">
        <ele>346.252</ele>
        <time>2013-06-20T08:08:25Z</time>
      </trkpt>
      <trkpt lat="44.52251" lon="2.76281">
        <ele>347.249</ele>
        <time>2013-06-20T08:08:48Z</time>
      </trkpt>
      <trkpt lat="44.52251" lon="2.76284">
        <ele>346.957</ele>
        <time>2013-06-20T08:08:55Z</time>
      </trkpt>
      <trkpt lat="44.52252" lon="2.7629">
        <ele>346.956</ele>
        <time>2013-06-20T08:09:11Z</time>
      </trkpt>
      <trkpt lat="44.5225" lon="2.76286">
        <ele>346.954</ele>
        <time>2013-06-20T08:09:38Z</time>
      </trkpt>
      <trkpt lat="44.52252" lon="2.76285">
        <ele>347.544</ele>
        <time>2013-06-20T08:09:57Z</time>
      </trkpt>
      <trkpt lat="44.5225" lon="2.7629">
        <ele>348.48</ele>
        <time>2013-06-20T08:10:27Z</time>
      </trkpt>
      <trkpt lat="44.52252" lon="2.76294">
        <ele>347.635</ele>
        <time>2013-06-20T08:10:54Z</time>
      </trkpt>
      <trkpt lat="44.52257" lon="2.76301">
        <ele>348.023</ele>
        <time>2013-06-20T08:11:14Z</time>
      </trkpt>
      <trkpt lat="44.52247" lon="2.7629">
        <ele>347.731</ele>
        <time>2013-06-20T08:11:31Z</time>
      </trkpt>
      <trkpt lat="44.52237" lon="2.763">
        <ele>347.626</ele>
        <time>2013-06-20T08:11:48Z</time>
      </trkpt>
      <trkpt lat="44.52225" lon="2.7633">
        <ele>346.835</ele>
        <time>2013-06-20T08:12:13Z</time>
      </trkpt>
      <trkpt lat="44.52215" lon="2.76341">
        <ele>346.878</ele>
        <time>2013-06-20T08:12:32Z</time>
      </trkpt>
      <trkpt lat="44.52216" lon="2.76348">
        <ele>347.344</ele>
        <time>2013-06-20T08:12:55Z</time>
      </trkpt>
      <trkpt lat="44.52208" lon="2.76348">
        <ele>347.846</ele>
        <time>2013-06-20T08:13:02Z</time>
      </trkpt>
      <trkpt lat="44.52198" lon="2.7636">
        <ele>347.583</ele>
        <time>2013-06-20T08:13:14Z</time>
      </trkpt>
      <trkpt lat="44.52209" lon="2.76356">
        <ele>347.338</ele>
        <time>2013-06-20T08:13:29Z</time>
      </trkpt>
      <trkpt lat="44.52222" lon="2.76352">
        <ele>347.396</ele>
        <time>2013-06-20T08:13:45Z</time>
      </trkpt>
      <trkpt lat="44.52229" lon="2.76354">
        <ele>347.745</ele>
        <time>2013-06-20T08:13:50Z</time>
      </trkpt>
      <trkpt lat="44.52235" lon="2.7635">
        <ele>347.158</ele>
        <time>2013-06-20T08:14:02Z</time>
      </trkpt>
      <trkpt lat="44.5221" lon="2.76358">
        <ele>346.458</ele>
        <time>2013-06-20T08:15:15Z</time>
      </trkpt>
      <trkpt lat="44.52213" lon="2.76357">
        <ele>345.445</ele>
        <time>2013-06-20T08:15:43Z</time>
      </trkpt>
      <trkpt lat="44.52228" lon="2.76359">
        <ele>345.135</ele>
        <time>2013-06-20T08:15:55Z</time>
      </trkpt>
      <trkpt lat="44.52221" lon="2.76367">
        <ele>345.727</ele>
        <time>2013-06-20T08:16:07Z</time>
      </trkpt>
      <trkpt lat="44.52217" lon="2.76363">
        <ele>346.08</ele>
        <time>2013-06-20T08:16:17Z</time>
      </trkpt>
      <trkpt lat="44.5221" lon="2.7636">
        <ele>345.05</ele>
        <time>2013-06-20T08:16:31Z</time>
      </trkpt>
      <trkpt lat="44.52202" lon="2.76362">
        <ele>345.028</ele>
        <time>2013-06-20T08:16:44Z</time>
      </trkpt>
      <trkpt lat="44.52211" lon="2.76359">
        <ele>344.737</ele>
        <time>2013-06-20T08:17:11Z</time>
      </trkpt>
      <trkpt lat="44.52214" lon="2.76356">
        <ele>345.012</ele>
        <time>2013-06-20T08:17:31Z</time>
      </trkpt>
      <trkpt lat="44.52218" lon="2.76349">
        <ele>344.774</ele>
        <time>2013-06-20T08:18:26Z</time>
      </trkpt>
      <trkpt lat="44.52222" lon="2.7635">
        <ele>344.822</ele>
        <time>2013-06-20T08:19:12Z</time>
      </trkpt>
      <trkpt lat="44.52228" lon="2.76338">
        <ele>344.768</ele>
        <time>2013-06-20T08:19:28Z</time>
      </trkpt>
      <trkpt lat="44.52225" lon="2.76332">
        <ele>344.334</ele>
        <time>2013-06-20T08:19:42Z</time>
      </trkpt>
      <trkpt lat="44.52226" lon="2.76333">
        <ele>345.145</ele>
        <time>2013-06-20T08:20:02Z</time>
      </trkpt>
      <trkpt lat="44.52229" lon="2.76339">
        <ele>345.713</ele>
        <time>2013-06-20T08:20:27Z</time>
      </trkpt>
      <trkpt lat="44.5222" lon="2.76334">
        <ele>346.245</ele>
        <time>2013-06-20T08:20:54Z</time>
      </trkpt>
      <trkpt lat="44.52228" lon="2.76332">
        <ele>346.078</ele>
        <time>2013-06-20T08:21:05Z</time>
      </trkpt>
      <trkpt lat="44.52241" lon="2.76333">
        <ele>346.222</ele>
        <time>2013-06-20T08:21:17Z</time>
      </trkpt>
      <trkpt lat="44.52225" lon="2.76335">
        <ele>346.265</ele>
        <time>2013-06-20T08:21:30Z</time>
      </trkpt>
      <trkpt lat="44.52232" lon="2.76322">
        <ele>346.726</ele>
        <time>2013-06-20T08:21:47Z</time>
      </trkpt>
      <trkpt lat="44.52233" lon="2.76314">
        <ele>347.158</ele>
        <time>2013-06-20T08:21:55Z</time>
      </trkpt>
      <trkpt lat="44.52241" lon="2.76296">
        <ele>347.698</ele>
        <time>2013-06-20T08:22:10Z</time>
      </trkpt>
      <trkpt lat="44.52249" lon="2.76279">
        <ele>347.137</ele>
        <time>2013-06-20T08:22:29Z</time>
      </trkpt>
      <trkpt lat="44.52227" lon="2.76266">
        <ele>347.731</ele>
        <time>2013-06-20T08:22:52Z</time>
      </trkpt>
      <trkpt lat="44.5223" lon="2.76243">
        <ele>347.44</ele>
        <time>2013-06-20T08:23:10Z</time>
      </trkpt>
      <trkpt lat="44.52246" lon="2.76215">
        <ele>346.329</ele>
        <time>2013-06-20T08:23:34Z</time>
      </trkpt>
      <trkpt lat="44.52251" lon="2.76207">
        <ele>345.441</ele>
        <time>2013-06-20T08:23:42Z</time>
      </trkpt>
      <trkpt lat="44.52268" lon="2.76171">
        <ele>344.455</ele>
        <time>2013-06-20T08:24:13Z</time>
      </trkpt>
      <trkpt lat="44.52279" lon="2.76153">
        <ele>344.185</ele>
        <time>2013-06-20T08:24:29Z</time>
      </trkpt>
      <trkpt lat="44.52295" lon="2.76117">
        <ele>344.422</ele>
        <time>2013-06-20T08:24:58Z</time>
      </trkpt>
      <trkpt lat="44.52311" lon="2.76083">
        <ele>344.406</ele>
        <time>2013-06-20T08:25:27Z</time>
      </trkpt>
      <trkpt lat="44.5233" lon="2.7605">
        <ele>345.067</ele>
        <time>2013-06-20T08:25:56Z</time>
      </trkpt>
      <trkpt lat="44.52349" lon="2.76015">
        <ele>344.697</ele>
        <time>2013-06-20T08:26:27Z</time>
      </trkpt>
      <trkpt lat="44.52365" lon="2.75981">
        <ele>344.027</ele>
        <time>2013-06-20T08:26:55Z</time>
      </trkpt>
      <trkpt lat="44.52378" lon="2.75946">
        <ele>343.512</ele>
        <time>2013-06-20T08:27:24Z</time>
      </trkpt>
      <trkpt lat="44.5239" lon="2.75913">
        <ele>343.012</ele>
        <time>2013-06-20T08:27:51Z</time>
      </trkpt>
      <trkpt lat="44.52404" lon="2.7589">
        <ele>342.276</ele>
        <time>2013-06-20T08:28:18Z</time>
      </trkpt>
      <trkpt lat="44.52407" lon="2.75883">
        <ele>341.974</ele>
        <time>2013-06-20T08:28:36Z</time>
      </trkpt>
      <trkpt lat="44.52419" lon="2.75847">
        <ele>342.312</ele>
        <time>2013-06-20T08:29:05Z</time>
      </trkpt>
      <trkpt lat="44.52434" lon="2.75807">
        <ele>341.87</ele>
        <time>2013-06-20T08:29:37Z</time>
      </trkpt>
      <trkpt lat="44.52449" lon="2.75774">
        <ele>342.129</ele>
        <time>2013-06-20T08:30:05Z</time>
      </trkpt>
      <trkpt lat="44.52467" lon="2.75736">
        <ele>341.262</ele>
        <time>2013-06-20T08:30:37Z</time>
      </trkpt>
      <trkpt lat="44.52488" lon="2.75706">
        <ele>341.359</ele>
        <time>2013-06-20T08:31:07Z</time>
      </trkpt>
      <trkpt lat="44.5249" lon="2.75705">
        <ele>341.22</ele>
        <time>2013-06-20T08:31:09Z</time>
      </trkpt>
      <trkpt lat="44.52517" lon="2.75687">
        <ele>341.332</ele>
        <time>2013-06-20T08:31:38Z</time>
      </trkpt>
      <trkpt lat="44.52533" lon="2.7567">
        <ele>341.274</ele>
        <time>2013-06-20T08:31:58Z</time>
      </trkpt>
      <trkpt lat="44.52549" lon="2.75635">
        <ele>341.683</ele>
        <time>2013-06-20T08:32:25Z</time>
      </trkpt>
      <trkpt lat="44.52565" lon="2.75595">
        <ele>342.291</ele>
        <time>2013-06-20T08:32:57Z</time>
      </trkpt>
      <trkpt lat="44.52576" lon="2.75559">
        <ele>341.621</ele>
        <time>2013-06-20T08:33:25Z</time>
      </trkpt>
      <trkpt lat="44.52589" lon="2.7552">
        <ele>340.921</ele>
        <time>2013-06-20T08:33:55Z</time>
      </trkpt>
      <trkpt lat="44.52602" lon="2.75485">
        <ele>340.2</ele>
        <time>2013-06-20T08:34:23Z</time>
      </trkpt>
      <trkpt lat="44.52612" lon="2.75446">
        <ele>339.817</ele>
        <time>2013-06-20T08:34:51Z</time>
      </trkpt>
      <trkpt lat="44.52623" lon="2.75402">
        <ele>339.019</ele>
        <time>2013-06-20T08:35:24Z</time>
      </trkpt>
      <trkpt lat="44.52633" lon="2.75364">
        <ele>339.832</ele>
        <time>2013-06-20T08:35:52Z</time>
      </trkpt>
      <trkpt lat="44.52638" lon="2.75352">
        <ele>340.119</ele>
        <time>2013-06-20T08:36:18Z</time>
      </trkpt>
      <trkpt lat="44.52641" lon="2.75337">
        <ele>341.102</ele>
        <time>2013-06-20T08:36:45Z</time>
      </trkpt>
      <trkpt lat="44.52649" lon="2.75301">
        <ele>340.846</ele>
        <time>2013-06-20T08:37:11Z</time>
      </trkpt>
      <trkpt lat="44.52656" lon="2.75263">
        <ele>340.915</ele>
        <time>2013-06-20T08:37:38Z</time>
      </trkpt>
      <trkpt lat="44.52659" lon="2.7523">
        <ele>339.968</ele>
        <time>2013-06-20T08:38:05Z</time>
      </trkpt>
      <trkpt lat="44.52659" lon="2.7523">
        <ele>340.538</ele>
        <time>2013-06-20T08:38:06Z</time>
      </trkpt>
      <trkpt lat="44.52637" lon="2.75217">
        <ele>340.841</ele>
        <time>2013-06-20T08:38:31Z</time>
      </trkpt>
      <trkpt lat="44.52617" lon="2.75204">
        <ele>341.562</ele>
        <time>2013-06-20T08:38:54Z</time>
      </trkpt>
      <trkpt lat="44.526" lon="2.75193">
        <ele>341.774</ele>
        <time>2013-06-20T08:39:17Z</time>
      </trkpt>
      <trkpt lat="44.52592" lon="2.75187">
        <ele>342.828</ele>
        <time>2013-06-20T08:39:34Z</time>
      </trkpt>
      <trkpt lat="44.52584" lon="2.75171">
        <ele>344.433</ele>
        <time>2013-06-20T08:39:53Z</time>
      </trkpt>
      <trkpt lat="44.52586" lon="2.75146">
        <ele>344.931</ele>
        <time>2013-06-20T08:40:14Z</time>
      </trkpt>
      <trkpt lat="44.52594" lon="2.75128">
        <ele>344.112</ele>
        <time>2013-06-20T08:40:31Z</time>
      </trkpt>
      <trkpt lat="44.52606" lon="2.75103">
        <ele>343.528</ele>
        <time>2013-06-20T08:40:55Z</time>
      </trkpt>
      <trkpt lat="44.52613" lon="2.75092">
        <ele>343.645</ele>
        <time>2013-06-20T08:41:14Z</time>
      </trkpt>
      <trkpt lat="44.52614" lon="2.75092">
        <ele>343.659</ele>
        <time>2013-06-20T08:41:15Z</time>
      </trkpt>
      <trkpt lat="44.5262" lon="2.75082">
        <ele>345.478</ele>
        <time>2013-06-20T08:41:25Z</time>
      </trkpt>
      <trkpt lat="44.52623" lon="2.75068">
        <ele>346.784</ele>
        <time>2013-06-20T08:41:41Z</time>
      </trkpt>
      <trkpt lat="44.52629" lon="2.75057">
        <ele>348.072</ele>
        <time>2013-06-20T08:41:57Z</time>
      </trkpt>
      <trkpt lat="44.52637" lon="2.75049">
        <ele>350.825</ele>
        <time>2013-06-20T08:42:14Z</time>
      </trkpt>
      <trkpt lat="44.52642" lon="2.75035">
        <ele>352.995</ele>
        <time>2013-06-20T08:42:30Z</time>
      </trkpt>
      <trkpt lat="44.52642" lon="2.75016">
        <ele>355.106</ele>
        <time>2013-06-20T08:42:48Z</time>
      </trkpt>
      <trkpt lat="44.52634" lon="2.75">
        <ele>356.765</ele>
        <time>2013-06-20T08:43:06Z</time>
      </trkpt>
      <trkpt lat="44.52619" lon="2.74986">
        <ele>357.589</ele>
        <time>2013-06-20T08:43:28Z</time>
      </trkpt>
      <trkpt lat="44.52603" lon="2.74974">
        <ele>358.519</ele>
        <time>2013-06-20T08:43:50Z</time>
      </trkpt>
      <trkpt lat="44.52584" lon="2.74959">
        <ele>359.088</ele>
        <time>2013-06-20T08:44:14Z</time>
      </trkpt>
      <trkpt lat="44.52564" lon="2.74943">
        <ele>359.8</ele>
        <time>2013-06-20T08:44:38Z</time>
      </trkpt>
      <trkpt lat="44.52545" lon="2.7493">
        <ele>360.697</ele>
        <time>2013-06-20T08:45:00Z</time>
      </trkpt>
      <trkpt lat="44.52522" lon="2.74914">
        <ele>362.403</ele>
        <time>2013-06-20T08:45:27Z</time>
      </trkpt>
      <trkpt lat="44.525" lon="2.74901">
        <ele>363.078</ele>
        <time>2013-06-20T08:45:52Z</time>
      </trkpt>
      <trkpt lat="44.52495" lon="2.74899">
        <ele>363.651</ele>
        <time>2013-06-20T08:45:58Z</time>
      </trkpt>
      <trkpt lat="44.52471" lon="2.74891">
        <ele>364.394</ele>
        <time>2013-06-20T08:46:24Z</time>
      </trkpt>
      <trkpt lat="44.52444" lon="2.74883">
        <ele>365.521</ele>
        <time>2013-06-20T08:46:52Z</time>
      </trkpt>
      <trkpt lat="44.52414" lon="2.74875">
        <ele>366.69</ele>
        <time>2013-06-20T08:47:22Z</time>
      </trkpt>
      <trkpt lat="44.52402" lon="2.74864">
        <ele>367.259</ele>
        <time>2013-06-20T08:47:44Z</time>
      </trkpt>
      <trkpt lat="44.524" lon="2.74861">
        <ele>367.585</ele>
        <time>2013-06-20T08:48:05Z</time>
      </trkpt>
      <trkpt lat="44.52402" lon="2.74862">
        <ele>367.695</ele>
        <time>2013-06-20T08:48:45Z</time>
      </trkpt>
      <trkpt lat="44.524" lon="2.74861">
        <ele>367.183</ele>
        <time>2013-06-20T08:49:19Z</time>
      </trkpt>
      <trkpt lat="44.524" lon="2.74838">
        <ele>367.045</ele>
        <time>2013-06-20T08:49:38Z</time>
      </trkpt>
      <trkpt lat="44.52406" lon="2.74809">
        <ele>366.904</ele>
        <time>2013-06-20T08:50:01Z</time>
      </trkpt>
      <trkpt lat="44.52412" lon="2.74786">
        <ele>366.46</ele>
        <time>2013-06-20T08:50:20Z</time>
      </trkpt>
      <trkpt lat="44.52419" lon="2.74757">
        <ele>366.842</ele>
        <time>2013-06-20T08:50:42Z</time>
      </trkpt>
      <trkpt lat="44.52426" lon="2.74727">
        <ele>367.344</ele>
        <time>2013-06-20T08:51:04Z</time>
      </trkpt>
      <trkpt lat="44.52427" lon="2.7472">
        <ele>366.943</ele>
        <time>2013-06-20T08:51:09Z</time>
      </trkpt>
      <trkpt lat="44.52435" lon="2.74686">
        <ele>366.777</ele>
        <time>2013-06-20T08:51:33Z</time>
      </trkpt>
      <trkpt lat="44.52438" lon="2.74654">
        <ele>366.716</ele>
        <time>2013-06-20T08:51:56Z</time>
      </trkpt>
      <trkpt lat="44.52439" lon="2.74645">
        <ele>366.106</ele>
        <time>2013-06-20T08:52:14Z</time>
      </trkpt>
      <trkpt lat="44.5244" lon="2.74633">
        <ele>365.392</ele>
        <time>2013-06-20T08:52:36Z</time>
      </trkpt>
      <trkpt lat="44.52444" lon="2.74602">
        <ele>366.193</ele>
        <time>2013-06-20T08:52:58Z</time>
      </trkpt>
      <trkpt lat="44.52447" lon="2.7456">
        <ele>365.524</ele>
        <time>2013-06-20T08:53:27Z</time>
      </trkpt>
      <trkpt lat="44.5245" lon="2.74545">
        <ele>365.3</ele>
        <time>2013-06-20T08:53:37Z</time>
      </trkpt>
      <trkpt lat="44.5245" lon="2.74541">
        <ele>365.182</ele>
        <time>2013-06-20T08:53:40Z</time>
      </trkpt>
      <trkpt lat="44.52456" lon="2.745">
        <ele>364.467</ele>
        <time>2013-06-20T08:54:08Z</time>
      </trkpt>
      <trkpt lat="44.52461" lon="2.74472">
        <ele>363.893</ele>
        <time>2013-06-20T08:54:28Z</time>
      </trkpt>
      <trkpt lat="44.52465" lon="2.74453">
        <ele>364.121</ele>
        <time>2013-06-20T08:54:41Z</time>
      </trkpt>
      <trkpt lat="44.52472" lon="2.7442">
        <ele>363.83</ele>
        <time>2013-06-20T08:55:04Z</time>
      </trkpt>
      <trkpt lat="44.52479" lon="2.74385">
        <ele>365.058</ele>
        <time>2013-06-20T08:55:29Z</time>
      </trkpt>
      <trkpt lat="44.52488" lon="2.74352">
        <ele>365.697</ele>
        <time>2013-06-20T08:55:54Z</time>
      </trkpt>
      <trkpt lat="44.52502" lon="2.74329">
        <ele>365.719</ele>
        <time>2013-06-20T08:56:15Z</time>
      </trkpt>
      <trkpt lat="44.5252" lon="2.743">
        <ele>365.89</ele>
        <time>2013-06-20T08:56:42Z</time>
      </trkpt>
      <trkpt lat="44.52523" lon="2.74292">
        <ele>365.936</ele>
        <time>2013-06-20T08:57:07Z</time>
      </trkpt>
      <trkpt lat="44.52534" lon="2.74279">
        <ele>364.863</ele>
        <time>2013-06-20T08:57:50Z</time>
      </trkpt>
      <trkpt lat="44.52558" lon="2.74248">
        <ele>364.287</ele>
        <time>2013-06-20T08:58:21Z</time>
      </trkpt>
      <trkpt lat="44.52573" lon="2.74231">
        <ele>362.995</ele>
        <time>2013-06-20T08:58:41Z</time>
      </trkpt>
      <trkpt lat="44.52595" lon="2.74206">
        <ele>363.27</ele>
        <time>2013-06-20T08:59:08Z</time>
      </trkpt>
      <trkpt lat="44.52608" lon="2.7419">
        <ele>362.52</ele>
        <time>2013-06-20T08:59:26Z</time>
      </trkpt>
      <trkpt lat="44.52622" lon="2.74172">
        <ele>361.333</ele>
        <time>2013-06-20T08:59:44Z</time>
      </trkpt>
      <trkpt lat="44.52637" lon="2.74152">
        <ele>360.62</ele>
        <time>2013-06-20T09:00:03Z</time>
      </trkpt>
      <trkpt lat="44.52651" lon="2.74119">
        <ele>360.813</ele>
        <time>2013-06-20T09:00:28Z</time>
      </trkpt>
      <trkpt lat="44.52658" lon="2.74093">
        <ele>358.93</ele>
        <time>2013-06-20T09:00:48Z</time>
      </trkpt>
      <trkpt lat="44.52671" lon="2.74059">
        <ele>358.411</ele>
        <time>2013-06-20T09:01:13Z</time>
      </trkpt>
      <trkpt lat="44.52692" lon="2.74032">
        <ele>356.657</ele>
        <time>2013-06-20T09:01:40Z</time>
      </trkpt>
      <trkpt lat="44.52705" lon="2.74015">
        <ele>355.531</ele>
        <time>2013-06-20T09:01:58Z</time>
      </trkpt>
      <trkpt lat="44.52713" lon="2.73997">
        <ele>354.49</ele>
        <time>2013-06-20T09:02:12Z</time>
      </trkpt>
      <trkpt lat="44.52727" lon="2.73962">
        <ele>352.594</ele>
        <time>2013-06-20T09:02:39Z</time>
      </trkpt>
      <trkpt lat="44.52742" lon="2.73924">
        <ele>349.788</ele>
        <time>2013-06-20T09:03:09Z</time>
      </trkpt>
      <trkpt lat="44.52751" lon="2.73903">
        <ele>346.605</ele>
        <time>2013-06-20T09:03:27Z</time>
      </trkpt>
      <trkpt lat="44.52756" lon="2.73889">
        <ele>346.305</ele>
        <time>2013-06-20T09:03:44Z</time>
      </trkpt>
      <trkpt lat="44.52764" lon="2.73889">
        <ele>346.826</ele>
        <time>2013-06-20T09:04:13Z</time>
      </trkpt>
      <trkpt lat="44.52768" lon="2.73875">
        <ele>347.228</ele>
        <time>2013-06-20T09:05:17Z</time>
      </trkpt>
      <trkpt lat="44.52778" lon="2.73859">
        <ele>347.073</ele>
        <time>2013-06-20T09:05:34Z</time>
      </trkpt>
      <trkpt lat="44.52783" lon="2.73843">
        <ele>346.178</ele>
        <time>2013-06-20T09:05:50Z</time>
      </trkpt>
      <trkpt lat="44.52787" lon="2.73819">
        <ele>345.411</ele>
        <time>2013-06-20T09:06:08Z</time>
      </trkpt>
      <trkpt lat="44.52792" lon="2.73793">
        <ele>344.71</ele>
        <time>2013-06-20T09:06:26Z</time>
      </trkpt>
      <trkpt lat="44.52798" lon="2.73762">
        <ele>345.383</ele>
        <time>2013-06-20T09:06:47Z</time>
      </trkpt>
      <trkpt lat="44.52799" lon="2.73738">
        <ele>345.524</ele>
        <time>2013-06-20T09:07:06Z</time>
      </trkpt>
      <trkpt lat="44.52804" lon="2.73707">
        <ele>345.442</ele>
        <time>2013-06-20T09:07:29Z</time>
      </trkpt>
      <trkpt lat="44.52804" lon="2.73701">
        <ele>345.389</ele>
        <time>2013-06-20T09:07:34Z</time>
      </trkpt>
      <trkpt lat="44.52804" lon="2.737">
        <ele>345.355</ele>
        <time>2013-06-20T09:07:44Z</time>
      </trkpt>
      <trkpt lat="44.52805" lon="2.73713">
        <ele>345.321</ele>
        <time>2013-06-20T09:07:55Z</time>
      </trkpt>
      <trkpt lat="44.52802" lon="2.73734">
        <ele>345.699</ele>
        <time>2013-06-20T09:08:15Z</time>
      </trkpt>
      <trkpt lat="44.52802" lon="2.73735">
        <ele>346.085</ele>
        <time>2013-06-20T09:08:42Z</time>
      </trkpt>
      <trkpt lat="44.52801" lon="2.73736">
        <ele>346.685</ele>
        <time>2013-06-20T09:09:41Z</time>
      </trkpt>
      <trkpt lat="44.52801" lon="2.73735">
        <ele>346.747</ele>
        <time>2013-06-20T09:11:52Z</time>
      </trkpt>
      <trkpt lat="44.52802" lon="2.73736">
        <ele>346.282</ele>
        <time>2013-06-20T09:13:32Z</time>
      </trkpt>
      <trkpt lat="44.52802" lon="2.73732">
        <ele>346.11</ele>
        <time>2013-06-20T09:13:50Z</time>
      </trkpt>
      <trkpt lat="44.52802" lon="2.73713">
        <ele>344.803</ele>
        <time>2013-06-20T09:14:11Z</time>
      </trkpt>
      <trkpt lat="44.52804" lon="2.73715">
        <ele>346.042</ele>
        <time>2013-06-20T09:14:31Z</time>
      </trkpt>
      <trkpt lat="44.52804" lon="2.73708">
        <ele>345.795</ele>
        <time>2013-06-20T09:14:47Z</time>
      </trkpt>
      <trkpt lat="44.52806" lon="2.73691">
        <ele>345.818</ele>
        <time>2013-06-20T09:15:01Z</time>
      </trkpt>
      <trkpt lat="44.52813" lon="2.73657">
        <ele>345.287</ele>
        <time>2013-06-20T09:15:25Z</time>
      </trkpt>
      <trkpt lat="44.52819" lon="2.73621">
        <ele>344.913</ele>
        <time>2013-06-20T09:15:48Z</time>
      </trkpt>
      <trkpt lat="44.52828" lon="2.73574">
        <ele>344.368</ele>
        <time>2013-06-20T09:16:18Z</time>
      </trkpt>
      <trkpt lat="44.52829" lon="2.7355">
        <ele>345.036</ele>
        <time>2013-06-20T09:16:35Z</time>
      </trkpt>
      <trkpt lat="44.52816" lon="2.73522">
        <ele>347.006</ele>
        <time>2013-06-20T09:16:59Z</time>
      </trkpt>
      <trkpt lat="44.52797" lon="2.73485">
        <ele>347.914</ele>
        <time>2013-06-20T09:17:30Z</time>
      </trkpt>
      <trkpt lat="44.52778" lon="2.73457">
        <ele>348.33</ele>
        <time>2013-06-20T09:17:58Z</time>
      </trkpt>
      <trkpt lat="44.52773" lon="2.73446">
        <ele>348.342</ele>
        <time>2013-06-20T09:18:08Z</time>
      </trkpt>
      <trkpt lat="44.52761" lon="2.73404">
        <ele>348.949</ele>
        <time>2013-06-20T09:18:39Z</time>
      </trkpt>
      <trkpt lat="44.52754" lon="2.73369">
        <ele>350.274</ele>
        <time>2013-06-20T09:19:02Z</time>
      </trkpt>
      <trkpt lat="44.52747" lon="2.73328">
        <ele>351.27</ele>
        <time>2013-06-20T09:19:31Z</time>
      </trkpt>
      <trkpt lat="44.52743" lon="2.73304">
        <ele>351.673</ele>
        <time>2013-06-20T09:19:50Z</time>
      </trkpt>
      <trkpt lat="44.52739" lon="2.73276">
        <ele>351.516</ele>
        <time>2013-06-20T09:20:08Z</time>
      </trkpt>
      <trkpt lat="44.52732" lon="2.73257">
        <ele>352.163</ele>
        <time>2013-06-20T09:20:22Z</time>
      </trkpt>
      <trkpt lat="44.52719" lon="2.7323">
        <ele>352.26</ele>
        <time>2013-06-20T09:20:43Z</time>
      </trkpt>
      <trkpt lat="44.52707" lon="2.73202">
        <ele>352.475</ele>
        <time>2013-06-20T09:21:05Z</time>
      </trkpt>
      <trkpt lat="44.52693" lon="2.73169">
        <ele>352.482</ele>
        <time>2013-06-20T09:21:28Z</time>
      </trkpt>
      <trkpt lat="44.52676" lon="2.73137">
        <ele>351.886</ele>
        <time>2013-06-20T09:21:55Z</time>
      </trkpt>
      <trkpt lat="44.52673" lon="2.73132">
        <ele>350.833</ele>
        <time>2013-06-20T09:22:18Z</time>
      </trkpt>
      <trkpt lat="44.52673" lon="2.7313">
        <ele>351.158</ele>
        <time>2013-06-20T09:22:37Z</time>
      </trkpt>
      <trkpt lat="44.52667" lon="2.73123">
        <ele>350.783</ele>
        <time>2013-06-20T09:23:00Z</time>
      </trkpt>
      <trkpt lat="44.5265" lon="2.73099">
        <ele>349.406</ele>
        <time>2013-06-20T09:23:25Z</time>
      </trkpt>
      <trkpt lat="44.5264" lon="2.73083">
        <ele>348.415</ele>
        <time>2013-06-20T09:23:43Z</time>
      </trkpt>
      <trkpt lat="44.52633" lon="2.73068">
        <ele>347.169</ele>
        <time>2013-06-20T09:23:57Z</time>
      </trkpt>
      <trkpt lat="44.52621" lon="2.73044">
        <ele>345.573</ele>
        <time>2013-06-20T09:24:14Z</time>
      </trkpt>
      <trkpt lat="44.52616" lon="2.73018">
        <ele>344.472</ele>
        <time>2013-06-20T09:24:32Z</time>
      </trkpt>
      <trkpt lat="44.52615" lon="2.72999">
        <ele>343.062</ele>
        <time>2013-06-20T09:24:52Z</time>
      </trkpt>
      <trkpt lat="44.52616" lon="2.72998">
        <ele>343.056</ele>
        <time>2013-06-20T09:25:12Z</time>
      </trkpt>
      <trkpt lat="44.52617" lon="2.72999">
        <ele>342.888</ele>
        <time>2013-06-20T09:26:11Z</time>
      </trkpt>
      <trkpt lat="44.52632" lon="2.73008">
        <ele>343.615</ele>
        <time>2013-06-20T09:26:32Z</time>
      </trkpt>
      <trkpt lat="44.52629" lon="2.7301">
        <ele>344.12</ele>
        <time>2013-06-20T09:26:46Z</time>
      </trkpt>
      <trkpt lat="44.52622" lon="2.73015">
        <ele>344.012</ele>
        <time>2013-06-20T09:27:08Z</time>
      </trkpt>
      <trkpt lat="44.52635" lon="2.73012">
        <ele>344.678</ele>
        <time>2013-06-20T09:27:15Z</time>
      </trkpt>
    </trkseg>
  </trk>
</gpx>